Time;durP1;ratioP1;P1;durP2;ratioP2;P2;SDS_P1;SDS_P2;PMS_P1;PMS_P2;Temp;Humidity;BMP_temperature;BMP_pressure;BME280_temperature;BME280_humidity;BME280_pressure;Samples;Min_cycle;Max_cycle;Signal;HPM_P1;HPM_P2
2022/03/27 00:01:18;;;;;;;1999.90;999.90;;;;;;;1.04;65.47;102489.64;1749221;79;20858;-76
2022/03/27 00:03:44;;;;;;;1999.90;999.90;;;;;;;1.02;65.46;102489.95;1788875;79;20880;-76
2022/03/27 00:06:10;;;;;;;1999.90;999.90;;;;;;;0.98;65.52;102494.01;1761498;80;20892;-76
2022/03/27 00:08:36;;;;;;;1999.90;999.90;;;;;;;0.93;65.37;102499.25;1765408;79;20917;-76
2022/03/27 00:13:59;;;;;;;1999.90;999.90;;;;;;;0.81;65.36;102507.51;1773245;80;20923;-77
2022/03/27 00:16:25;;;;;;;1999.90;999.90;;;;;;;0.75;65.40;102514.42;1789266;79;20933;-76
2022/03/27 00:18:52;;;;;;;1999.90;999.90;;;;;;;0.71;65.39;102517.98;1792109;79;20895;-76
2022/03/27 00:21:21;;;;;;;1999.90;999.90;;;;;;;0.62;65.36;102516.69;1757416;79;20899;-77
2022/03/27 00:23:47;;;;;;;1999.90;999.90;;;;;;;0.55;65.36;102520.96;1769927;80;20898;-76
2022/03/27 00:26:15;;;;;;;1999.90;999.90;;;;;;;0.49;65.33;102521.05;1735118;82;20850;-76
2022/03/27 00:28:42;;;;;;;1999.90;999.90;;;;;;;0.42;65.35;102521.11;1731459;81;20910;-76
2022/03/27 00:31:11;;;;;;;1999.90;999.90;;;;;;;0.37;65.40;102522.52;1706139;83;20923;-76
2022/03/27 00:33:39;;;;;;;1999.90;999.90;;;;;;;0.34;65.40;102515.98;1722679;82;20915;-76
2022/03/27 00:36:07;;;;;;;1999.90;999.90;;;;;;;0.29;65.40;102529.72;1767475;80;20921;-76
2022/03/27 00:38:33;;;;;;;1999.90;999.90;;;;;;;0.22;65.35;102528.02;1752844;79;20840;-77
2022/03/27 00:41:00;;;;;;;1999.90;999.90;;;;;;;0.17;65.48;102530.30;1778656;80;20871;-76
2022/03/27 00:43:27;;;;;;;1999.90;999.90;;;;;;;0.15;65.43;102528.45;1747562;79;20981;-77
2022/03/27 00:45:54;;;;;;;1999.90;999.90;;;;;;;0.09;65.42;102529.38;1741512;81;20911;-77
2022/03/27 00:48:21;;;;;;;1999.90;999.90;;;;;;;0.03;65.44;102528.63;1706942;82;20911;-77
2022/03/27 00:50:51;;;;;;;1999.90;999.90;;;;;;;-0.02;65.49;102528.40;1671908;82;192731;-77
2022/03/27 00:53:18;;;;;;;1999.90;999.90;;;;;;;-0.06;65.55;102522.66;1651895;85;20907;-77
2022/03/27 00:55:45;;;;;;;91.40;85.12;;;;;;;-0.06;65.59;102526.47;1644936;86;20919;-77
2022/03/27 00:58:14;;;;;;;102.02;94.85;;;;;;;-0.09;65.48;102532.64;1705306;83;21544;-76
2022/03/27 01:00:56;;;;;;;1999.90;999.90;;;;;;;-0.17;65.44;102528.78;1706589;82;20976;-76
2022/03/27 01:03:26;;;;;;;1999.90;999.90;;;;;;;-0.20;65.49;102530.27;1700213;83;20908;-76
2022/03/27 01:05:53;;;;;;;1999.90;999.90;;;;;;;-0.25;65.50;102524.03;1703208;82;20944;-76
2022/03/27 01:11:18;;;;;;;95.20;88.62;;;;;;;-0.23;65.63;102523.73;1706414;83;20936;-76
2022/03/27 01:13:49;;;;;;;78.70;73.00;;;;;;;-0.28;65.54;102519.65;1700784;83;20912;-76
2022/03/27 01:16:43;;;;;;;101.10;94.22;;;;;;;-0.35;65.58;102524.77;1726610;81;21542;-76
2022/03/27 01:19:13;;;;;;;71.12;65.78;;;;;;;-0.43;65.60;102525.98;1731550;82;20880;-76
2022/03/27 01:21:46;;;;;;;86.92;80.85;;;;;;;-0.47;65.69;102522.77;1725484;82;20959;-76
2022/03/27 01:24:16;;;;;;;1523.23;771.48;;;;;;;-0.48;65.77;102528.64;1700162;83;20920;-76
2022/03/27 01:26:42;;;;;;;1999.90;999.90;;;;;;;-0.47;65.76;102525.70;1710976;82;20940;-76
2022/03/27 01:29:08;;;;;;;;;;;;;;;-0.49;65.74;102523.08;1734106;82;20896;-76
2022/03/27 01:31:34;;;;;;;;;;;;;;;-0.49;66.07;102528.55;1712051;82;20168;-77
2022/03/27 01:34:05;;;;;;;1999.90;999.90;;;;;;;-0.50;66.01;102529.33;1713293;82;20100;-77
2022/03/27 01:36:34;;;;;;;89.28;82.95;;;;;;;-0.55;65.70;102534.17;1722916;82;20872;-76
2022/03/27 01:39:05;;;;;;;73.30;66.85;;;;;;;-0.60;65.73;102535.95;1731311;82;20900;-76
2022/03/27 01:41:32;;;;;;;92.20;85.45;;;;;;;-0.62;65.78;102530.78;1731760;82;20944;-76
2022/03/27 01:43:59;;;;;;;;;;;;;;;-0.64;65.76;102537.83;1731993;82;20901;-77
2022/03/27 01:46:31;;;;;;;1999.90;999.90;;;;;;;-0.65;65.97;102542.03;1718487;81;20405;-77
2022/03/27 01:49:00;;;;;;;92.42;85.67;;;;;;;-0.67;65.76;102533.05;1666557;85;20965;-76
2022/03/27 01:51:28;;;;;;;91.75;85.07;;;;;;;-0.68;65.79;102535.49;1647976;85;20887;-76
2022/03/27 01:53:55;;;;;;;83.90;77.70;;;;;;;-0.69;65.75;102533.34;1659807;83;20917;-76
2022/03/27 01:56:21;;;;;;;92.33;86.00;;;;;;;-0.72;65.68;102536.09;1656281;85;20922;-76
2022/03/27 01:58:48;;;;;;;65.05;59.93;;;;;;;-0.75;65.74;102537.17;1730482;82;25446;-76
2022/03/27 02:01:16;;;;;;;63.05;58.42;;;;;;;-0.79;65.73;102534.84;1699521;82;21440;-76
2022/03/27 02:03:43;;;;;;;57.05;52.55;;;;;;;-0.82;65.72;102534.66;1679089;82;20927;-76
2022/03/27 02:06:09;;;;;;;64.03;59.03;;;;;;;-0.85;65.71;102535.73;1725820;82;21499;-76
2022/03/27 02:08:35;;;;;;;57.85;53.15;;;;;;;-0.87;65.70;102533.50;1702455;83;20955;-76
2022/03/27 02:11:02;;;;;;;102.32;95.03;;;;;;;-0.91;65.71;102536.63;1719404;82;21528;-77
2022/03/27 02:13:29;;;;;;;107.58;99.77;;;;;;;-0.93;65.84;102533.52;1722019;81;20951;-76
2022/03/27 02:15:58;;;;;;;60.30;55.58;;;;;;;-0.94;65.87;102536.45;1730989;82;20897;-77
2022/03/27 02:18:26;;;;;;;127.55;119.10;;;;;;;-0.96;65.82;102535.47;1681764;84;21362;-77
2022/03/27 02:20:54;;;;;;;48.95;44.08;;;;;;;-1.02;65.78;102541.05;1715455;82;20948;-77
2022/03/27 02:23:23;;;;;;;58.08;51.88;;;;;;;-1.04;65.78;102537.97;1699546;83;20920;-77
2022/03/27 02:25:51;;;;;;;70.80;64.00;;;;;;;-1.07;65.80;102540.31;1705896;82;20924;-76
2022/03/27 02:28:18;;;;;;;65.60;56.40;;;;;;;-1.08;65.83;102543.63;1700742;83;20908;-76
2022/03/27 02:30:45;;;;;;;61.80;55.85;;;;;;;-1.13;65.82;102542.08;1699863;84;20908;-76
2022/03/27 02:33:11;;;;;;;105.22;97.55;;;;;;;-1.16;65.97;102537.20;1700931;82;20955;-77
2022/03/27 02:35:43;;;;;;;72.82;67.32;;;;;;;-1.19;65.93;102537.02;1711542;83;20947;-77
2022/03/27 02:38:10;;;;;;;84.25;78.12;;;;;;;-1.22;65.97;102527.94;1678303;84;20956;-76
2022/03/27 02:40:38;;;;;;;96.37;89.03;;;;;;;-1.23;66.07;102543.55;1712147;82;20904;-76
2022/03/27 02:43:05;;;;;;;79.32;73.52;;;;;;;-1.21;66.17;102541.11;1707139;82;20924;-76
2022/03/27 02:45:32;;;;;;;79.32;72.67;;;;;;;-1.22;66.06;102545.70;1701726;83;20948;-76
2022/03/27 02:47:58;;;;;;;;;;;;;;;-1.25;66.06;102545.12;1683049;85;20913;-76
2022/03/27 02:50:26;;;;;;;61.13;56.68;;;;;;;-1.25;66.19;102548.92;1728557;83;20099;-76
2022/03/27 02:52:53;;;;;;;62.50;57.53;;;;;;;-1.27;65.98;102554.69;1729075;82;21094;-76
2022/03/27 02:55:20;;;;;;;59.67;54.03;;;;;;;-1.31;66.02;102555.27;1727430;82;20912;-76
2022/03/27 02:57:48;;;;;;;61.98;56.53;;;;;;;-1.30;66.12;102555.37;1703354;83;20943;-76
2022/03/27 03:00:15;;;;;;;58.87;53.50;;;;;;;-1.34;66.04;102559.37;1713787;83;21376;-76
2022/03/27 03:02:41;;;;;;;;;;;;;;;-1.39;66.01;102563.28;1698124;82;20927;-76
2022/03/27 03:05:09;;;;;;;63.95;59.00;;;;;;;-1.40;66.20;102558.98;1731501;82;20177;-77
2022/03/27 03:07:43;;;;;;;65.80;60.65;;;;;;;-1.44;66.02;102561.23;1705184;82;20880;-76
2022/03/27 03:10:12;;;;;;;56.00;51.13;;;;;;;-1.45;66.01;102565.81;1717868;82;20943;-76
2022/03/27 03:12:38;;;;;;;66.12;60.23;;;;;;;-1.49;65.95;102569.81;1731988;82;20974;-76
2022/03/27 03:15:06;;;;;;;53.73;49.20;;;;;;;-1.53;65.97;102573.32;1717476;82;26543;-76
2022/03/27 03:17:36;;;;;;;72.72;66.80;;;;;;;-1.60;65.98;102578.42;1729986;82;20900;-76
2022/03/27 03:20:04;;;;;;;73.07;67.03;;;;;;;-1.60;66.18;102574.62;1734471;82;20912;-76
2022/03/27 03:22:30;;;;;;;114.12;105.95;;;;;;;-1.55;66.29;102578.69;1704790;82;20924;-76
2022/03/27 03:24:56;;;;;;;;;;;;;;;-1.55;66.36;102582.10;1737319;82;20963;-77
2022/03/27 03:27:22;;;;;;;46.98;43.02;;;;;;;-1.55;66.41;102580.84;1734880;82;20434;-76
2022/03/27 03:29:48;;;;;;;56.53;52.25;;;;;;;-1.60;66.13;102580.96;1734826;82;21399;-76
2022/03/27 03:32:15;;;;;;;63.83;58.83;;;;;;;-1.63;66.11;102582.42;1722083;82;21474;-76
2022/03/27 03:34:41;;;;;;;60.40;54.90;;;;;;;-1.64;66.11;102575.59;1728962;82;20890;-76
2022/03/27 03:37:07;;;;;;;57.00;52.33;;;;;;;-1.70;66.04;102580.75;1726068;82;20902;-76
2022/03/27 03:39:34;;;;;;;50.60;45.92;;;;;;;-1.76;66.01;102577.81;1719934;82;20917;-76
2022/03/27 03:42:00;;;;;;;74.25;68.47;;;;;;;-1.79;66.07;102581.42;1705487;82;21400;-76
2022/03/27 03:44:26;;;;;;;104.10;97.08;;;;;;;-1.84;66.05;102570.09;1705472;83;20948;-76
2022/03/27 03:46:58;;;;;;;63.95;58.28;;;;;;;-1.87;66.09;102564.83;1716791;83;20929;-77
2022/03/27 03:49:24;;;;;;;50.85;46.70;;;;;;;-1.87;66.09;102565.22;1689154;83;21360;-76
2022/03/27 03:51:51;;;;;;;83.20;77.32;;;;;;;-1.88;66.08;102566.88;1705450;82;21471;-77
2022/03/27 03:54:18;;;;;;;94.40;87.35;;;;;;;-1.92;66.02;102563.64;1717619;82;21563;-77
2022/03/27 03:56:44;;;;;;;96.72;89.62;;;;;;;-1.97;66.07;102571.33;1717852;82;21386;-76
2022/03/27 03:59:10;;;;;;;47.58;43.28;;;;;;;-1.98;66.06;102567.43;1734919;82;21373;-77
2022/03/27 04:01:36;;;;;;;48.45;44.05;;;;;;;-2.02;66.05;102581.56;1719256;82;20872;-77
2022/03/27 04:04:02;;;;;;;88.20;81.78;;;;;;;-2.07;66.12;102578.72;1705802;82;21066;-76
2022/03/27 04:06:28;;;;;;;100.80;93.62;;;;;;;-2.07;66.19;102576.19;1696111;82;21529;-77
2022/03/27 04:08:55;;;;;;;67.47;62.13;;;;;;;-2.08;66.18;102577.38;1716474;82;21500;-77
2022/03/27 04:11:22;;;;;;;104.80;97.33;;;;;;;-2.11;66.15;102579.33;1726972;82;20914;-77
2022/03/27 04:13:48;;;;;;;60.38;55.28;;;;;;;-2.10;66.18;102583.62;1711565;82;21534;-77
2022/03/27 04:16:15;;;;;;;93.35;86.75;;;;;;;-2.10;66.18;102575.14;1724612;82;21524;-77
2022/03/27 04:18:41;;;;;;;52.80;48.52;;;;;;;-2.11;66.14;102578.45;1731805;82;21491;-77
2022/03/27 04:21:07;;;;;;;63.85;58.95;;;;;;;-2.14;66.17;102579.12;1706025;82;21508;-77
2022/03/27 04:23:33;;;;;;;;;;;;;;;-2.19;66.11;102573.25;1715107;82;21433;-76
2022/03/27 04:26:05;;;;;;;85.85;79.53;;;;;;;-2.23;66.27;102581.04;1731939;82;20601;-77
2022/03/27 04:28:31;;;;;;;96.63;89.75;;;;;;;-2.24;66.25;102585.61;1718706;82;20888;-76
2022/03/27 04:30:58;;;;;;;59.42;54.50;;;;;;;-2.23;66.37;102583.57;1702795;82;21468;-76
2022/03/27 04:33:24;;;;;;;66.47;61.48;;;;;;;-2.21;66.41;102576.95;1717008;82;21409;-76
2022/03/27 04:35:50;;;;;;;56.90;51.92;;;;;;;-2.22;66.29;102576.45;1732014;82;20896;-76
2022/03/27 04:38:16;;;;;;;50.10;46.15;;;;;;;-2.24;66.28;102574.59;1720468;82;20959;-76
2022/03/27 04:40:43;;;;;;;80.00;73.85;;;;;;;-2.26;66.30;102577.03;1703812;82;21444;-76
2022/03/27 04:43:09;;;;;;;64.60;59.13;;;;;;;-2.28;66.24;102577.70;1723358;82;21334;-76
2022/03/27 04:45:35;;;;;;;68.87;62.53;;;;;;;-2.32;66.24;102587.14;1599009;82;10000415;-76
2022/03/27 04:48:01;;;;;;;50.78;46.02;;;;;;;-2.34;66.26;102577.78;1724490;82;286417;-77
2022/03/27 04:50:27;;;;;;;51.28;45.92;;;;;;;-2.35;66.31;102586.54;912536;83;10000249;-76
2022/03/27 04:52:53;;;;;;;53.33;48.30;;;;;;;-2.37;66.33;102586.44;1704636;82;25227;-76
2022/03/27 04:55:19;;;;;;;53.42;48.33;;;;;;;-2.38;66.35;102582.14;1695647;83;21449;-76
2022/03/27 04:57:45;;;;;;;79.85;73.67;;;;;;;-2.36;66.43;102587.31;1693405;82;21004;-76
2022/03/27 05:00:14;;;;;;;100.62;92.92;;;;;;;-2.32;66.48;102584.61;1698827;83;21507;-76
2022/03/27 05:02:42;;;;;;;104.55;96.85;;;;;;;-2.25;66.49;102582.98;1695486;83;20912;-76
2022/03/27 05:05:11;;;;;;;89.03;82.25;;;;;;;-2.23;66.47;102575.97;1691805;84;21414;-75
2022/03/27 05:07:40;;;;;;;103.12;95.57;;;;;;;-2.17;66.49;102577.65;1692239;83;21441;-75
2022/03/27 05:10:09;;;;;;;86.92;80.12;;;;;;;-2.14;66.41;102574.44;1702308;83;21461;-77
2022/03/27 05:12:35;;;;;;;60.50;54.65;;;;;;;-2.10;66.46;102586.54;1691651;83;21512;-76
2022/03/27 05:15:02;;;;;;;57.00;51.68;;;;;;;-2.08;66.53;102574.42;1694350;83;20897;-76
2022/03/27 05:17:28;;;;;;;53.87;48.80;;;;;;;-2.03;66.61;102577.27;1707508;83;21501;-76
2022/03/27 05:19:54;;;;;;;50.90;45.80;;;;;;;-1.97;66.61;102577.67;1694491;83;21495;-77
2022/03/27 05:22:20;;;;;;;87.90;80.35;;;;;;;-1.90;66.65;102577.30;1711033;83;21733;-77
2022/03/27 05:24:47;;;;;;;51.28;46.35;;;;;;;-1.83;66.71;102578.58;1720985;83;21631;-77
2022/03/27 05:27:18;;;;;;;53.33;47.75;;;;;;;-1.79;66.69;102575.08;1721008;83;20933;-77
2022/03/27 05:29:44;;;;;;;56.02;50.90;;;;;;;-1.72;66.75;102578.50;1704463;83;21362;-76
2022/03/27 05:32:10;;;;;;;1999.90;999.90;;;;;;;-1.62;66.80;102588.86;1703930;83;20926;-76
2022/03/27 05:34:36;;;;;;;1999.90;999.90;;;;;;;-1.50;66.92;102588.35;1705998;82;21544;-76
2022/03/27 05:37:03;;;;;;;1999.90;999.90;;;;;;;-1.39;66.95;102591.58;1618769;83;5000732;-76
2022/03/27 05:39:29;;;;;;;;;;;;;;;-1.27;67.07;102586.02;1720622;82;20913;-76
2022/03/27 05:41:55;;;;;;;1999.90;999.90;;;;;;;-1.14;67.27;102591.48;1721206;80;20790;-76
2022/03/27 05:44:21;;;;;;;1999.90;999.90;;;;;;;-1.03;67.09;102588.80;1765132;80;20913;-77
2022/03/27 05:46:49;;;;;;;1999.90;999.90;;;;;;;-0.89;67.17;102585.85;1752833;81;21393;-76
2022/03/27 05:49:15;;;;;;;1999.90;999.90;;;;;;;-0.72;67.21;102588.16;1718118;82;20858;-76
2022/03/27 05:51:42;;;;;;;1999.90;999.90;;;;;;;-0.58;67.26;102591.55;1742941;80;20941;-77
2022/03/27 05:54:08;;;;;;;1999.90;999.90;;;;;;;-0.43;67.31;102592.44;1742996;80;27135;-76
2022/03/27 05:56:34;;;;;;;1999.90;999.90;;;;;;;-0.27;67.39;102595.13;1747361;81;20905;-76
2022/03/27 05:59:00;;;;;;;1999.90;999.90;;;;;;;-0.07;67.45;102604.81;1748191;80;20917;-76
2022/03/27 06:01:26;;;;;;;1999.90;999.90;;;;;;;0.13;67.48;102603.80;1736837;80;20842;-76
2022/03/27 06:03:52;;;;;;;1999.90;999.90;;;;;;;0.31;67.51;102604.86;1727966;80;21363;-76
2022/03/27 06:06:18;;;;;;;1999.90;999.90;;;;;;;0.54;67.54;102609.96;1758271;80;20874;-76
2022/03/27 06:08:44;;;;;;;1999.90;999.90;;;;;;;0.81;67.65;102614.05;1750398;80;20954;-76
2022/03/27 06:11:10;;;;;;;1999.90;999.90;;;;;;;1.14;67.75;102616.28;1740495;80;20866;-76
2022/03/27 06:13:36;;;;;;;1999.90;999.90;;;;;;;1.53;67.86;102616.66;1711319;80;20846;-76
2022/03/27 06:16:03;;;;;;;1999.90;999.90;;;;;;;1.92;67.84;102616.55;1733619;80;20886;-76
2022/03/27 06:18:29;;;;;;;1999.90;999.90;;;;;;;2.37;67.88;102623.08;1740918;80;20889;-76
2022/03/27 06:20:55;;;;;;;1999.90;999.90;;;;;;;2.81;67.88;102625.20;1747605;80;20874;-77
2022/03/27 06:23:21;;;;;;;1999.90;999.90;;;;;;;3.21;67.88;102621.54;1738504;80;20934;-77
2022/03/27 06:25:49;;;;;;;1999.90;999.90;;;;;;;3.62;67.89;102621.27;1736854;80;20916;-77
2022/03/27 06:28:15;;;;;;;1999.90;999.90;;;;;;;3.97;67.74;102626.22;1740085;80;20914;-77
2022/03/27 06:30:41;;;;;;;1999.90;999.90;;;;;;;4.32;67.83;102643.45;1742269;80;20929;-76
2022/03/27 06:33:07;;;;;;;1999.90;999.90;;;;;;;4.62;67.73;102633.20;1740318;80;20947;-76
2022/03/27 06:35:34;;;;;;;1999.90;999.90;;;;;;;4.95;67.70;102639.17;1733396;80;20979;-76
2022/03/27 06:38:00;;;;;;;1999.90;999.90;;;;;;;5.31;67.72;102634.56;1734056;80;21438;-77
2022/03/27 06:40:26;;;;;;;1999.90;999.90;;;;;;;5.64;67.58;102626.84;1734064;80;21367;-76
2022/03/27 06:42:52;;;;;;;1999.90;999.90;;;;;;;5.86;67.67;102628.87;1739519;80;21503;-76
2022/03/27 06:45:19;;;;;;;1999.90;999.90;;;;;;;6.24;67.71;102627.64;1745156;80;21143;-77
2022/03/27 06:47:46;;;;;;;1999.90;999.90;;;;;;;6.61;67.65;102634.47;1731756;80;21539;-78
2022/03/27 06:50:14;;;;;;;1999.90;999.90;;;;;;;6.98;67.51;102642.92;1742968;80;20893;-78
2022/03/27 06:52:41;;;;;;;1999.90;999.90;;;;;;;7.30;67.38;102645.16;1721550;80;20890;-78
2022/03/27 06:55:09;;;;;;;1999.90;999.90;;;;;;;7.58;67.12;102642.98;1746833;80;20925;-77
2022/03/27 06:57:36;;;;;;;1999.90;999.90;;;;;;;7.80;67.11;102650.87;1743035;80;20875;-77
2022/03/27 07:03:02;;;;;;;1999.90;999.90;;;;;;;8.32;67.02;102648.39;1746117;80;20936;-78
2022/03/27 07:05:38;;;;;;;1999.90;999.90;;;;;;;8.56;66.87;102647.75;1737556;80;20885;-77
2022/03/27 07:08:13;;;;;;;1999.90;999.90;;;;;;;8.82;66.76;102653.97;1743825;80;20925;-78
2022/03/27 07:10:42;;;;;;;1999.90;999.90;;;;;;;9.14;66.71;102665.02;1747181;80;20921;-78
2022/03/27 07:13:10;;;;;;;1999.90;999.90;;;;;;;9.66;66.86;102667.41;1741948;80;20867;-78
2022/03/27 07:15:37;;;;;;;1999.90;999.90;;;;;;;10.34;66.65;102673.92;1747324;80;20898;-78
2022/03/27 07:18:03;;;;;;;1999.90;999.90;;;;;;;10.80;65.96;102679.44;1741794;80;20912;-78
2022/03/27 07:20:34;;;;;;;1999.90;999.90;;;;;;;11.14;65.50;102674.33;1741731;80;20937;-78
2022/03/27 07:23:03;;;;;;;1999.90;999.90;;;;;;;11.26;65.19;102680.98;1743533;80;20901;-78
2022/03/27 07:25:34;;;;;;;1999.90;999.90;;;;;;;11.29;65.16;102685.33;1755089;80;20913;-78
2022/03/27 07:28:02;;;;;;;9.75;5.37;;;;;;;11.34;65.10;102685.39;1747740;80;20866;-78
2022/03/27 07:30:29;;;;;;;10.10;5.05;;;;;;;11.33;64.92;102679.34;1733601;80;20890;-78
2022/03/27 07:32:55;;;;;;;7.70;5.08;;;;;;;11.40;64.81;102679.01;1736202;80;21512;-78
2022/03/27 07:35:22;;;;;;;6.87;4.27;;;;;;;11.51;64.84;102673.09;1712220;80;21056;-78
2022/03/27 07:37:51;;;;;;;;;;;;;;;11.68;64.85;102673.73;1745025;80;20995;-78
2022/03/27 07:40:18;;;;;;;6.87;3.37;;;;;;;11.83;63.66;102675.25;1747481;80;20170;-78
2022/03/27 07:42:47;;;;;;;10.40;3.58;;;;;;;11.95;64.30;102674.52;1738020;80;20957;-78
2022/03/27 07:45:14;;;;;;;6.85;4.33;;;;;;;12.03;64.09;102674.16;1740292;80;21046;-78
2022/03/27 07:47:40;;;;;;;;;;;;;;;12.07;63.93;102670.73;1735047;80;21019;-79
2022/03/27 07:50:08;;;;;;;7.10;3.60;;;;;;;12.17;63.05;102668.27;1731612;80;21182;-79
2022/03/27 07:52:35;;;;;;;6.67;3.45;;;;;;;12.19;63.66;102663.09;1738753;80;20902;-79
2022/03/27 07:55:02;;;;;;;7.08;3.65;;;;;;;12.12;63.38;102663.45;1736151;80;20924;-78
2022/03/27 07:57:28;;;;;;;;;;;;;;;12.02;63.33;102662.05;1757189;80;21333;-78
2022/03/27 07:59:54;;;;;;;11.73;8.65;;;;;;;11.97;62.26;102654.64;1748801;80;20216;-78
2022/03/27 08:02:21;;;;;;;9.73;3.80;;;;;;;12.07;63.02;102646.11;1744646;80;20936;-78
2022/03/27 08:04:48;;;;;;;8.10;3.95;;;;;;;12.08;62.99;102638.34;1737888;80;21016;-77
2022/03/27 08:07:15;;;;;;;8.80;3.98;;;;;;;12.11;63.03;102643.98;1748004;80;20929;-82
2022/03/27 08:09:42;;;;;;;10.90;3.77;;;;;;;12.11;62.80;102638.38;1747841;80;21371;-77
2022/03/27 08:12:09;;;;;;;7.28;4.10;;;;;;;12.21;62.61;102637.61;1747698;80;20909;-79
2022/03/27 08:14:39;;;;;;;8.30;4.37;;;;;;;12.26;62.56;102629.87;1720154;80;20905;-78
2022/03/27 08:17:06;;;;;;;8.05;4.30;;;;;;;12.43;62.57;102634.79;1697168;83;20905;-80
2022/03/27 08:19:33;;;;;;;9.83;4.50;;;;;;;12.44;62.23;102623.98;1691647;83;21359;-82
2022/03/27 08:22:01;;;;;;;8.43;4.45;;;;;;;12.29;61.99;102622.13;1683889;82;21612;-79
2022/03/27 08:24:28;;;;;;;10.38;4.35;;;;;;;12.16;61.40;102622.44;1700498;83;20965;-79
2022/03/27 08:26:57;;;;;;;;;;;;;;;12.11;61.09;102618.92;1702117;82;20885;-81
2022/03/27 08:29:29;;;;;;;8.23;4.30;;;;;;;12.09;60.24;102615.88;1698053;83;20128;-80
2022/03/27 08:31:56;;;;;;;8.18;4.65;;;;;;;11.93;60.69;102617.47;1704778;83;20969;-80
2022/03/27 08:34:26;;;;;;;8.10;4.35;;;;;;;11.80;60.42;102621.66;1703729;83;21080;-81
2022/03/27 08:36:53;;;;;;;5.28;3.80;;;;;;;11.68;60.32;102627.09;1701369;83;21028;-81
2022/03/27 08:39:19;;;;;;;11.23;6.67;;;;;;;11.65;60.27;102622.73;1706150;83;21028;-80
2022/03/27 08:41:48;;;;;;;9.83;4.60;;;;;;;11.64;60.04;102621.42;1703874;83;21574;-83
2022/03/27 08:44:22;;;;;;;5.55;3.75;;;;;;;11.55;59.55;102626.94;1707324;83;20973;-81
2022/03/27 08:46:48;;;;;;;6.37;3.42;;;;;;;11.52;59.68;102617.83;1702013;82;21553;-81
2022/03/27 08:49:41;;;;;;;4.87;3.00;;;;;;;11.48;59.26;102618.64;1706447;83;21656;-81
2022/03/27 08:52:23;;;;;;;6.25;2.90;;;;;;;11.42;59.04;102610.83;1704813;83;21104;-81
2022/03/27 08:55:10;;;;;;;6.30;2.67;;;;;;;11.32;58.59;102611.56;1689069;83;21482;-80
2022/03/27 08:57:49;;;;;;;7.33;2.50;;;;;;;11.19;58.45;102604.48;1703784;83;21095;-77
2022/03/27 09:00:16;;;;;;;6.05;2.75;;;;;;;11.05;58.21;102599.11;1700464;83;20890;-76
2022/03/27 09:02:42;;;;;;;5.72;2.65;;;;;;;10.91;57.95;102596.36;1704291;83;20988;-76
2022/03/27 09:05:09;;;;;;;3.40;2.20;;;;;;;10.83;57.78;102586.31;1708988;83;21112;-75
2022/03/27 09:07:35;;;;;;;;;;;;;;;10.70;57.39;102582.23;1704951;83;21099;-75
2022/03/27 09:10:06;;;;;;;3.87;1.42;;;;;;;10.63;56.55;102579.97;1701542;83;20327;-75
2022/03/27 09:12:34;;;;;;;4.65;2.02;;;;;;;10.56;57.00;102575.55;1704497;83;20937;-75
2022/03/27 09:15:02;;;;;;;4.87;1.87;;;;;;;10.46;56.52;102575.83;1706669;80;21258;-75
2022/03/27 09:17:28;;;;;;;3.95;1.65;;;;;;;10.44;56.53;102577.52;1742396;80;21579;-76
2022/03/27 09:19:55;;;;;;;3.45;1.67;;;;;;;10.47;56.45;102570.23;1743917;80;21033;-74
2022/03/27 09:22:31;;;;;;;4.37;3.10;;;;;;;10.44;55.70;102562.42;1743358;80;21532;-74
2022/03/27 09:25:01;;;;;;;1.98;1.15;;;;;;;10.42;55.84;102558.94;1735687;80;29535;-75
2022/03/27 09:27:34;;;;;;;4.28;1.80;;;;;;;10.38;55.47;102564.95;1687156;82;20973;-73
2022/03/27 09:30:10;;;;;;;3.52;1.70;;;;;;;10.37;55.32;102556.31;1712540;83;20882;-73
2022/03/27 09:32:40;;;;;;;7.80;2.15;;;;;;;10.38;55.15;102554.17;1716870;83;21454;-73
2022/03/27 09:35:17;;;;;;;4.80;2.00;;;;;;;10.41;55.00;102557.20;1685339;83;20871;-73
2022/03/27 09:37:46;;;;;;;5.55;2.33;;;;;;;10.45;54.80;102549.52;1710138;83;20991;-73
2022/03/27 09:40:14;;;;;;;4.87;2.10;;;;;;;10.49;54.57;102546.13;1716353;82;20921;-73
2022/03/27 09:42:41;;;;;;;13.40;7.40;;;;;;;10.51;54.50;102540.56;1706138;83;20922;-69
2022/03/27 09:45:23;;;;;;;;;;;;;;;10.51;54.30;102549.61;1716707;82;20901;-72
2022/03/27 09:47:55;;;;;;;7.83;3.50;;;;;;;10.53;53.78;102550.92;1711346;83;20124;-75
2022/03/27 09:50:37;;;;;;;3.70;2.20;;;;;;;10.56;53.58;102553.56;1710169;82;21335;-74
2022/03/27 09:53:29;;;;;;;3.98;2.20;;;;;;;10.60;53.32;102559.23;1715167;82;21143;-75
2022/03/27 09:56:04;;;;;;;7.85;3.45;;;;;;;10.64;53.46;102549.80;1668438;85;20908;-75
2022/03/27 09:58:41;;;;;;;10.68;4.97;;;;;;;10.71;53.37;102547.33;1672724;84;21533;-75
2022/03/27 10:01:17;;;;;;;9.75;1.60;;;;;;;10.80;53.30;102541.41;1667316;84;21131;-73
2022/03/27 10:04:07;;;;;;;4.50;1.80;;;;;;;10.87;53.05;102528.58;1669862;84;21080;-76
2022/03/27 10:06:38;;;;;;;5.42;2.00;;;;;;;10.91;52.93;102521.72;1661594;85;21629;-76
2022/03/27 10:09:11;;;;;;;5.42;1.85;;;;;;;10.95;52.83;102513.98;1666419;85;21162;-77
2022/03/27 10:11:40;;;;;;;3.40;2.05;;;;;;;10.96;52.73;102513.56;1670057;83;21153;-75
2022/03/27 10:14:09;;;;;;;6.47;2.25;;;;;;;10.99;52.69;102511.44;1665117;84;21127;-71
2022/03/27 10:16:40;;;;;;;2.35;1.20;;;;;;;11.03;52.45;102505.45;1662056;85;21573;-71
2022/03/27 10:19:27;;;;;;;7.15;2.00;;;;;;;11.02;52.10;102514.94;1659076;86;21124;-72
2022/03/27 10:21:55;;;;;;;3.70;2.27;;;;;;;11.01;52.06;102509.73;1655672;86;21154;-72
2022/03/27 10:24:25;;;;;;;3.22;1.90;;;;;;;11.02;52.00;102508.89;1654831;84;21148;-71
2022/03/27 10:26:55;;;;;;;4.67;2.02;;;;;;;11.05;51.99;102506.34;1659588;86;21056;-71
2022/03/27 10:29:23;;;;;;;5.30;2.08;;;;;;;11.11;51.54;102505.12;1654213;84;21681;-73
2022/03/27 10:31:50;;;;;;;;;;;;;;;11.19;51.65;102495.30;1662635;84;21075;-73
2022/03/27 10:34:17;;;;;;;5.37;1.95;;;;;;;11.21;51.25;102489.71;1628770;86;20220;-73
2022/03/27 10:37:00;;;;;;;3.65;2.22;;;;;;;11.28;51.73;102488.93;1634490;86;22083;-73
2022/03/27 10:39:47;;;;;;;4.80;1.50;;;;;;;11.31;51.43;102481.63;1637867;86;21080;-73
2022/03/27 10:42:50;;;;;;;3.92;1.92;;;;;;;11.33;50.98;102473.87;1660553;84;21104;-74
2022/03/27 10:45:20;;;;;;;5.15;2.22;;;;;;;11.40;51.18;102464.02;1658987;84;21123;-72
2022/03/27 10:48:13;;;;;;;7.40;2.17;;;;;;;11.50;50.99;102458.91;1658046;84;21044;-72
2022/03/27 10:50:51;;;;;;;4.95;2.22;;;;;;;11.49;50.85;102445.52;1660116;84;21039;-72
2022/03/27 10:53:23;;;;;;;5.53;2.40;;;;;;;11.53;50.81;102449.00;1654136;85;21035;-72
2022/03/27 10:55:56;;;;;;;6.33;2.00;;;;;;;11.54;50.74;102439.95;1651234;84;20970;-72
2022/03/27 10:58:41;;;;;;;5.40;2.15;;;;;;;11.61;49.97;102435.70;1654787;86;21081;-73
2022/03/27 11:01:27;;;;;;;4.35;1.87;;;;;;;11.70;50.42;102437.08;1656221;85;21096;-73
2022/03/27 11:04:08;;;;;;;4.50;1.70;;;;;;;11.77;50.30;102429.83;1650147;85;21095;-72
2022/03/27 11:06:42;;;;;;;4.40;2.40;;;;;;;11.79;50.03;102429.41;1651466;85;21051;-72
2022/03/27 11:09:13;;;;;;;3.72;2.08;;;;;;;11.79;50.11;102424.66;1659787;84;21070;-73
2022/03/27 11:11:48;;;;;;;3.42;2.05;;;;;;;11.81;50.01;102422.94;1651565;85;21095;-73
2022/03/27 11:14:21;;;;;;;5.78;2.20;;;;;;;11.82;49.96;102424.25;1657433;85;21040;-73
2022/03/27 11:17:13;;;;;;;8.55;2.05;;;;;;;11.84;49.93;102424.27;1651647;85;21115;-73
2022/03/27 11:19:47;;;;;;;3.98;2.12;;;;;;;11.85;49.78;102419.09;1663025;85;20998;-73
2022/03/27 11:22:44;;;;;;;4.60;1.87;;;;;;;11.88;49.60;102407.88;1668789;85;21450;-73
2022/03/27 11:25:45;;;;;;;4.03;2.27;;;;;;;11.97;49.64;102408.34;1659373;84;21155;-73
2022/03/27 11:28:15;;;;;;;3.47;1.80;;;;;;;12.08;49.73;102405.39;1664965;85;21017;-73
2022/03/27 11:30:56;;;;;;;3.50;1.60;;;;;;;12.14;49.47;102411.92;1664932;84;21136;-73